Create Tblcommutelog Verified Points Advance Search
| # | Trip ID | Id Commuter | Trip Date | Trip Num | Current Lat | Current Lng | Delta Distance | Current Time | Activity | Activity Confidence | Current Speed | |
|---|---|---|---|---|---|---|---|---|---|---|---|---|
| 71781 | 251124_786243_16514529_0746 | 786243 | (not set) | (not set) | 39.4144714 | -76.6079196 | 0 | 2025-11-24 07:47:02 | still | 100 | 0.08046706661779 | |
| 71782 | 251124_700992_16414139_0713 | 700992 | (not set) | (not set) | 39.02995027638 | -77.122779188421 | 14.9571 | 2025-11-24 07:47:01 | in_vehicle | 100 | 13.058016755031 | |
| 71783 | 251124_782696_16447096_0726 | 782696 | (not set) | (not set) | 38.901167112486 | -77.006354237553 | 5.4352 | 2025-11-24 07:47:01 | in_vehicle | 100 | 7.9215356692625 | |
| 71784 | 251124_786932_16444065_0726 | 786932 | (not set) | (not set) | 39.413522329375 | -76.410640531428 | 16.8357 | 2025-11-24 07:47:02 | in_vehicle | 100 | 15.109926953785 | |
| 71785 | 251124_785868_16514810_0730 | 785868 | (not set) | (not set) | 39.363897781711 | -76.367483241776 | 14.7932 | 2025-11-24 07:47:02 | in_vehicle | 100 | 18.082738026053 | |
| 71786 | 251124_785147_16514010_0730 | 785147 | (not set) | (not set) | 39.043886904705 | -78.002246411033 | 11.8395 | 2025-11-24 07:47:02 | still | 33 | 11.775014081737 | |
| 71787 | 251124_786244_16514530_0747 | 786244 | (not set) | (not set) | 39.414459 | -76.6078892 | 0 | 2025-11-24 07:47:02 | still | 100 | 0.80914105876778 | |
| 71788 | 251124_786927_16463850_0726 | 786927 | (not set) | (not set) | 39.413805935914 | -76.410448954693 | 16.7624 | 2025-11-24 07:47:03 | in_vehicle | 100 | 15.190394020403 | |
| 71789 | 251124_789883_16514514_0635 | 789883 | (not set) | (not set) | 39.108052846128 | -76.85268133408 | 21.0479 | 2025-11-24 07:47:03 | in_vehicle | 100 | 4.953194989584 | |
| 71790 | 251124_731669_16507744_0654 | 731669 | (not set) | (not set) | 38.800522974276 | -77.320039874836 | 18.5722 | 2025-11-24 07:47:03 | in_vehicle | 100 | 10.094146467943 | |
| 71791 | 251124_786932_16444065_0726 | 786932 | (not set) | (not set) | 39.414071602934 | -76.410289861359 | 16.8781 | 2025-11-24 07:47:04 | in_vehicle | 100 | 15.203805198173 | |
| 71792 | 251124_786930_16432785_0726 | 786930 | (not set) | (not set) | 39.414073144195 | -76.410272250813 | 16.8385 | 2025-11-24 07:47:04 | unknown | 100 | 15.226157161122 | |
| 71793 | 251124_786930_16432785_0725 | 786930 | (not set) | (not set) | 39.414073144195 | -76.410272250813 | 16.8385 | 2025-11-24 07:47:04 | unknown | 100 | 15.226157161122 | |
| 71794 | 251124_785264_6438355_0703 | 785264 | (not set) | (not set) | 38.882154645757 | -77.145679457591 | 19.6433 | 2025-11-24 07:47:04 | in_vehicle | 100 | 10.56800808247 | |
| 71795 | 251124_789732_16516120_0713 | 789732 | (not set) | (not set) | 38.883450104017 | -77.106995758385 | 6.3726 | 2025-11-24 07:46:54 | still | 100 | -0.44703925898772 | |
| 71796 | 251124_789732_16516120_0713 | 789732 | (not set) | (not set) | 38.883180472272 | -77.109858937984 | 6.3726 | 2025-11-24 07:47:01 | still | 33 | -0.44703925898772 | |
| 71797 | 251124_753586_16500033_0734 | 753586 | (not set) | (not set) | 38.902637846804 | -77.013709545207 | 1.9678 | 2025-11-24 07:47:06 | in_vehicle | 100 | 3.7640705606766 | |
| 71798 | 251124_753586_16500033_0734 | 753586 | (not set) | (not set) | 38.902637846804 | -77.013709545207 | 1.9678 | 2025-11-24 07:47:06 | in_vehicle | 100 | 3.7640705606766 | |
| 71799 | 251124_784389_6428266_0701 | 784389 | (not set) | (not set) | 38.882692900473 | -77.119315937497 | 29.9944 | 2025-11-24 07:47:06 | in_vehicle | 100 | 12.244405303674 | |
| 71800 | 251124_784252_16652453_0706 | 784252 | (not set) | (not set) | 39.278986891457 | -76.855086494074 | 37.1109 | 2025-11-24 07:47:07 | in_vehicle | 100 | 9.6426368163652 |